sensor_id;sensor_type;location;lat;lon;timestamp;pressure;altitude;pressure_sealevel;temperature;humidity
79612;BME280;69094;48.154;11.536;2023-08-30T00:02:11;94954.34;;;11.76;93.18
79612;BME280;69094;48.154;11.536;2023-08-30T00:04:36;94956.06;;;11.69;93.39
79612;BME280;69094;48.154;11.536;2023-08-30T00:07:02;94953.34;;;11.69;94.00
79612;BME280;69094;48.154;11.536;2023-08-30T00:09:27;94952.19;;;11.70;93.13
79612;BME280;69094;48.154;11.536;2023-08-30T00:11:52;94943.69;;;11.71;93.72
79612;BME280;69094;48.154;11.536;2023-08-30T00:14:18;94949.13;;;11.71;93.40
79612;BME280;69094;48.154;11.536;2023-08-30T00:16:43;94946.84;;;11.73;93.20
79612;BME280;69094;48.154;11.536;2023-08-30T00:19:08;94949.47;;;11.70;93.44
79612;BME280;69094;48.154;11.536;2023-08-30T00:21:34;94943.75;;;11.75;92.72
79612;BME280;69094;48.154;11.536;2023-08-30T00:23:59;94947.31;;;11.75;92.42
79612;BME280;69094;48.154;11.536;2023-08-30T00:26:25;94948.09;;;11.76;93.10
79612;BME280;69094;48.154;11.536;2023-08-30T00:28:51;94953.19;;;11.77;92.44
79612;BME280;69094;48.154;11.536;2023-08-30T00:31:16;94949.59;;;11.73;93.11
79612;BME280;69094;48.154;11.536;2023-08-30T00:33:41;94952.09;;;11.66;93.43
79612;BME280;69094;48.154;11.536;2023-08-30T00:36:07;94943.47;;;11.64;93.30
79612;BME280;69094;48.154;11.536;2023-08-30T00:38:33;94940.22;;;11.58;93.22
79612;BME280;69094;48.154;11.536;2023-08-30T00:40:59;94953.72;;;11.55;93.59
79612;BME280;69094;48.154;11.536;2023-08-30T00:43:24;94952.81;;;11.63;93.50
79612;BME280;69094;48.154;11.536;2023-08-30T00:45:50;94946.69;;;11.54;93.10
79612;BME280;69094;48.154;11.536;2023-08-30T00:48:17;94955.91;;;11.49;93.41
79612;BME280;69094;48.154;11.536;2023-08-30T00:50:43;94947.72;;;11.49;93.38
79612;BME280;69094;48.154;11.536;2023-08-30T00:53:10;94939.56;;;11.49;93.63
79612;BME280;69094;48.154;11.536;2023-08-30T00:55:36;94945.47;;;11.51;93.02
79612;BME280;69094;48.154;11.536;2023-08-30T00:58:02;94944.91;;;11.46;93.35
79612;BME280;69094;48.154;11.536;2023-08-30T01:00:29;94944.66;;;11.51;94.06
79612;BME280;69094;48.154;11.536;2023-08-30T01:02:56;94943.44;;;11.48;93.68
79612;BME280;69094;48.154;11.536;2023-08-30T01:05:21;94940.00;;;11.51;93.28
79612;BME280;69094;48.154;11.536;2023-08-30T01:07:48;94945.88;;;11.66;92.91
79612;BME280;69094;48.154;11.536;2023-08-30T01:10:13;94941.59;;;11.52;92.81
79612;BME280;69094;48.154;11.536;2023-08-30T01:12:53;94950.56;;;11.53;93.13
79612;BME280;69094;48.154;11.536;2023-08-30T01:15:23;94949.22;;;11.47;92.74
79612;BME280;69094;48.154;11.536;2023-08-30T01:17:52;94947.53;;;11.42;92.65
79612;BME280;69094;48.154;11.536;2023-08-30T01:20:19;94954.00;;;11.37;93.08
79612;BME280;69094;48.154;11.536;2023-08-30T01:22:59;94947.53;;;11.42;93.50
79612;BME280;69094;48.154;11.536;2023-08-30T01:25:50;94947.44;;;11.38;92.68
79612;BME280;69094;48.154;11.536;2023-08-30T01:28:21;94946.28;;;11.39;93.25
79612;BME280;69094;48.154;11.536;2023-08-30T01:30:48;94949.13;;;11.43;93.03
79612;BME280;69094;48.154;11.536;2023-08-30T01:33:16;94937.66;;;11.37;92.85
79612;BME280;69094;48.154;11.536;2023-08-30T01:35:42;94935.53;;;11.31;93.26
79612;BME280;69094;48.154;11.536;2023-08-30T01:38:09;94934.34;;;11.44;92.76
79612;BME280;69094;48.154;11.536;2023-08-30T01:40:37;94932.31;;;11.41;93.13
79612;BME280;69094;48.154;11.536;2023-08-30T01:43:05;94931.53;;;11.40;92.40
79612;BME280;69094;48.154;11.536;2023-08-30T01:45:36;94938.34;;;11.34;93.42
79612;BME280;69094;48.154;11.536;2023-08-30T01:48:04;94942.78;;;11.39;92.51
79612;BME280;69094;48.154;11.536;2023-08-30T01:50:31;94949.16;;;11.31;93.02
79612;BME280;69094;48.154;11.536;2023-08-30T01:52:57;94938.13;;;11.27;93.22
79612;BME280;69094;48.154;11.536;2023-08-30T01:55:25;94931.66;;;11.32;92.48
79612;BME280;69094;48.154;11.536;2023-08-30T01:57:51;94926.22;;;11.32;92.78
79612;BME280;69094;48.154;11.536;2023-08-30T02:00:17;94936.78;;;11.33;92.79
79612;BME280;69094;48.154;11.536;2023-08-30T02:02:42;94934.06;;;11.33;92.73
79612;BME280;69094;48.154;11.536;2023-08-30T02:05:07;94937.88;;;11.45;92.48
79612;BME280;69094;48.154;11.536;2023-08-30T02:08:00;94939.81;;;11.44;91.85
79612;BME280;69094;48.154;11.536;2023-08-30T02:10:34;94931.66;;;11.32;92.59
79612;BME280;69094;48.154;11.536;2023-08-30T02:13:02;94941.38;;;11.45;93.03
79612;BME280;69094;48.154;11.536;2023-08-30T02:15:29;94938.31;;;11.47;92.03
79612;BME280;69094;48.154;11.536;2023-08-30T02:17:56;94944.91;;;11.46;91.59
79612;BME280;69094;48.154;11.536;2023-08-30T02:20:22;94940.94;;;11.43;92.67
79612;BME280;69094;48.154;11.536;2023-08-30T02:22:48;94934.94;;;11.37;92.43
79612;BME280;69094;48.154;11.536;2023-08-30T02:25:13;94931.97;;;11.42;91.18
79612;BME280;69094;48.154;11.536;2023-08-30T02:27:39;94933.22;;;11.33;92.29
79612;BME280;69094;48.154;11.536;2023-08-30T02:30:05;94933.94;;;11.30;92.96
79612;BME280;69094;48.154;11.536;2023-08-30T02:32:31;94917.84;;;11.25;92.53
79612;BME280;69094;48.154;11.536;2023-08-30T02:34:56;94936.94;;;11.53;92.33
79612;BME280;69094;48.154;11.536;2023-08-30T02:37:22;94929.84;;;11.36;91.95
79612;BME280;69094;48.154;11.536;2023-08-30T02:39:47;94928.47;;;11.30;92.30
79612;BME280;69094;48.154;11.536;2023-08-30T02:42:13;94937.56;;;11.34;92.76
79612;BME280;69094;48.154;11.536;2023-08-30T02:44:38;94928.59;;;11.33;92.52
79612;BME280;69094;48.154;11.536;2023-08-30T02:47:04;94934.94;;;11.37;92.42
79612;BME280;69094;48.154;11.536;2023-08-30T02:49:29;94937.09;;;11.32;92.99
79612;BME280;69094;48.154;11.536;2023-08-30T02:51:54;94937.66;;;11.37;92.90
79612;BME280;69094;48.154;11.536;2023-08-30T02:54:20;94929.16;;;11.39;92.37
79612;BME280;69094;48.154;11.536;2023-08-30T02:56:45;94937.31;;;11.39;92.07
79612;BME280;69094;48.154;11.536;2023-08-30T02:59:11;94937.22;;;11.35;92.60
79612;BME280;69094;48.154;11.536;2023-08-30T03:01:37;94933.34;;;11.36;92.50
79612;BME280;69094;48.154;11.536;2023-08-30T03:04:06;94942.78;;;11.39;92.38
79612;BME280;69094;48.154;11.536;2023-08-30T03:06:35;94933.06;;;11.54;91.89
79612;BME280;69094;48.154;11.536;2023-08-30T03:09:01;94940.56;;;11.57;91.66
79612;BME280;69094;48.154;11.536;2023-08-30T03:11:26;94938.06;;;11.52;91.80
79612;BME280;69094;48.154;11.536;2023-08-30T03:13:53;94935.25;;;11.48;91.71
79612;BME280;69094;48.154;11.536;2023-08-30T03:16:19;94944.09;;;11.45;92.29
79612;BME280;69094;48.154;11.536;2023-08-30T03:18:46;94931.59;;;11.56;91.24
79612;BME280;69094;48.154;11.536;2023-08-30T03:21:11;94933.84;;;11.54;91.66
79612;BME280;69094;48.154;11.536;2023-08-30T03:23:38;94934.34;;;11.44;91.62
79612;BME280;69094;48.154;11.536;2023-08-30T03:26:14;94916.44;;;11.43;91.88
79612;BME280;69094;48.154;11.536;2023-08-30T03:28:41;94922.09;;;11.50;92.07
79612;BME280;69094;48.154;11.536;2023-08-30T03:31:20;94924.91;;;11.54;92.01
79612;BME280;69094;48.154;11.536;2023-08-30T03:33:46;94918.88;;;11.60;91.60
79612;BME280;69094;48.154;11.536;2023-08-30T03:36:16;94923.88;;;11.58;91.57
79612;BME280;69094;48.154;11.536;2023-08-30T03:38:43;94925.88;;;11.61;91.39
79612;BME280;69094;48.154;11.536;2023-08-30T03:41:10;94925.81;;;11.58;91.70
79612;BME280;69094;48.154;11.536;2023-08-30T03:43:36;94926.69;;;11.62;92.14
79612;BME280;69094;48.154;11.536;2023-08-30T03:46:02;94923.94;;;11.62;91.59
79612;BME280;69094;48.154;11.536;2023-08-30T03:48:31;94924.91;;;11.54;91.80
79612;BME280;69094;48.154;11.536;2023-08-30T03:50:57;94927.91;;;11.64;92.14
79612;BME280;69094;48.154;11.536;2023-08-30T03:53:23;94940.41;;;11.66;91.66
79612;BME280;69094;48.154;11.536;2023-08-30T03:55:49;94926.78;;;11.66;91.38
79612;BME280;69094;48.154;11.536;2023-08-30T03:58:15;94928.94;;;11.60;92.06
79612;BME280;69094;48.154;11.536;2023-08-30T04:00:41;94932.28;;;11.53;91.65
79612;BME280;69094;48.154;11.536;2023-08-30T04:03:08;94927.81;;;11.61;91.96
79612;BME280;69094;48.154;11.536;2023-08-30T04:05:34;94927.13;;;11.64;91.82
79612;BME280;69094;48.154;11.536;2023-08-30T04:08:05;94928.91;;;11.72;92.03
79612;BME280;69094;48.154;11.536;2023-08-30T04:10:38;94921.59;;;11.60;92.40
79612;BME280;69094;48.154;11.536;2023-08-30T04:13:04;94933.81;;;11.67;91.29
79612;BME280;69094;48.154;11.536;2023-08-30T04:15:34;94934.00;;;11.74;91.93
79612;BME280;69094;48.154;11.536;2023-08-30T04:18:00;94931.50;;;11.81;91.54
79612;BME280;69094;48.154;11.536;2023-08-30T04:20:26;94939.91;;;11.76;91.04
79612;BME280;69094;48.154;11.536;2023-08-30T04:22:51;94937.88;;;11.73;91.30
79612;BME280;69094;48.154;11.536;2023-08-30T04:25:18;94933.72;;;11.63;91.56
79612;BME280;69094;48.154;11.536;2023-08-30T04:27:43;94930.25;;;11.78;92.12
79612;BME280;69094;48.154;11.536;2023-08-30T04:30:10;94936.13;;;11.93;92.39
79612;BME280;69094;48.154;11.536;2023-08-30T04:32:35;94932.25;;;11.94;90.71
79612;BME280;69094;48.154;11.536;2023-08-30T04:35:01;94935.13;;;11.85;90.63
79612;BME280;69094;48.154;11.536;2023-08-30T04:37:30;94935.31;;;11.92;90.69
79612;BME280;69094;48.154;11.536;2023-08-30T04:39:57;94938.22;;;11.99;91.41
79612;BME280;69094;48.154;11.536;2023-08-30T04:42:22;94944.47;;;12.00;90.97
79612;BME280;69094;48.154;11.536;2023-08-30T04:44:47;94934.47;;;12.04;89.72
79612;BME280;69094;48.154;11.536;2023-08-30T04:47:13;94934.28;;;11.84;90.14
79612;BME280;69094;48.154;11.536;2023-08-30T04:49:38;94934.97;;;11.94;91.96
79612;BME280;69094;48.154;11.536;2023-08-30T04:52:04;94931.91;;;11.95;90.65
79612;BME280;69094;48.154;11.536;2023-08-30T04:54:30;94921.94;;;11.87;89.68
79612;BME280;69094;48.154;11.536;2023-08-30T04:56:55;94939.84;;;12.00;89.64
79612;BME280;69094;48.154;11.536;2023-08-30T04:59:20;94935.06;;;11.97;89.11
79612;BME280;69094;48.154;11.536;2023-08-30T05:01:46;94935.13;;;11.85;90.73
79612;BME280;69094;48.154;11.536;2023-08-30T05:04:11;94937.50;;;11.87;90.73
79612;BME280;69094;48.154;11.536;2023-08-30T05:06:37;94945.97;;;11.97;89.94
79612;BME280;69094;48.154;11.536;2023-08-30T05:09:02;94937.44;;;11.99;90.44
79612;BME280;69094;48.154;11.536;2023-08-30T05:11:28;94936.47;;;11.91;89.19
79612;BME280;69094;48.154;11.536;2023-08-30T05:13:54;94938.00;;;12.20;88.96
79612;BME280;69094;48.154;11.536;2023-08-30T05:16:20;94943.28;;;12.29;89.03
79612;BME280;69094;48.154;11.536;2023-08-30T05:18:45;94938.97;;;12.44;88.53
79612;BME280;69094;48.154;11.536;2023-08-30T05:21:13;94938.72;;;12.49;87.97
79612;BME280;69094;48.154;11.536;2023-08-30T05:23:39;94936.44;;;12.51;88.01
79612;BME280;69094;48.154;11.536;2023-08-30T05:26:07;94945.84;;;12.54;87.15
79612;BME280;69094;48.154;11.536;2023-08-30T05:28:33;94944.09;;;12.61;86.06
79612;BME280;69094;48.154;11.536;2023-08-30T05:30:58;94945.84;;;12.54;86.36
79612;BME280;69094;48.154;11.536;2023-08-30T05:33:24;94952.53;;;12.56;87.34
79612;BME280;69094;48.154;11.536;2023-08-30T05:35:49;94953.16;;;12.49;85.42
79612;BME280;69094;48.154;11.536;2023-08-30T05:38:14;94952.81;;;12.51;85.87
79612;BME280;69094;48.154;11.536;2023-08-30T05:40:40;94951.47;;;12.29;87.76
79612;BME280;69094;48.154;11.536;2023-08-30T05:43:10;94943.81;;;12.19;87.62
79612;BME280;69094;48.154;11.536;2023-08-30T05:45:36;94948.47;;;12.18;87.53
79612;BME280;69094;48.154;11.536;2023-08-30T05:48:02;94946.25;;;12.08;88.04
79612;BME280;69094;48.154;11.536;2023-08-30T05:50:28;94944.31;;;12.09;87.87
79612;BME280;69094;48.154;11.536;2023-08-30T05:52:53;94940.63;;;12.17;87.40
79612;BME280;69094;48.154;11.536;2023-08-30T05:55:18;94948.03;;;12.16;89.05
79612;BME280;69094;48.154;11.536;2023-08-30T05:57:44;94941.00;;;12.15;87.45
79612;BME280;69094;48.154;11.536;2023-08-30T06:00:10;94947.06;;;12.09;88.83
79612;BME280;69094;48.154;11.536;2023-08-30T06:02:36;94948.47;;;12.34;88.32
79612;BME280;69094;48.154;11.536;2023-08-30T06:05:02;94956.41;;;12.39;87.55
79612;BME280;69094;48.154;11.536;2023-08-30T06:07:28;94964.00;;;12.46;87.22
79612;BME280;69094;48.154;11.536;2023-08-30T06:09:53;94948.66;;;12.41;86.71
79612;BME280;69094;48.154;11.536;2023-08-30T06:12:18;94950.75;;;12.32;86.70
79612;BME280;69094;48.154;11.536;2023-08-30T06:14:44;94951.47;;;12.29;88.95
79612;BME280;69094;48.154;11.536;2023-08-30T06:17:15;94948.66;;;12.41;87.10
79612;BME280;69094;48.154;11.536;2023-08-30T06:19:40;94949.91;;;12.44;87.15
79612;BME280;69094;48.154;11.536;2023-08-30T06:22:05;94956.50;;;12.43;86.80
79612;BME280;69094;48.154;11.536;2023-08-30T06:24:31;94961.25;;;12.30;87.61
79612;BME280;69094;48.154;11.536;2023-08-30T06:26:56;94954.56;;;12.27;87.50
79612;BME280;69094;48.154;11.536;2023-08-30T06:29:22;94969.53;;;12.34;87.69
79612;BME280;69094;48.154;11.536;2023-08-30T06:31:47;94965.22;;;12.48;87.53
79612;BME280;69094;48.154;11.536;2023-08-30T06:34:12;94961.34;;;12.49;86.36
79612;BME280;69094;48.154;11.536;2023-08-30T06:36:38;94959.16;;;12.55;85.78
79612;BME280;69094;48.154;11.536;2023-08-30T06:39:03;94958.09;;;12.44;86.29
79612;BME280;69094;48.154;11.536;2023-08-30T06:41:29;94956.06;;;12.41;86.81
79612;BME280;69094;48.154;11.536;2023-08-30T06:43:54;94953.88;;;12.62;85.21
79612;BME280;69094;48.154;11.536;2023-08-30T06:46:19;94952.63;;;12.44;86.14
79612;BME280;69094;48.154;11.536;2023-08-30T06:48:45;94955.72;;;12.42;86.04
79612;BME280;69094;48.154;11.536;2023-08-30T06:51:13;94955.53;;;12.51;86.07
79612;BME280;69094;48.154;11.536;2023-08-30T06:53:39;94955.00;;;12.45;86.57
79612;BME280;69094;48.154;11.536;2023-08-30T06:56:04;94955.09;;;12.49;85.83
79612;BME280;69094;48.154;11.536;2023-08-30T06:58:39;94957.38;;;12.47;86.48
79612;BME280;69094;48.154;11.536;2023-08-30T07:01:04;94960.09;;;12.47;86.16
79612;BME280;69094;48.154;11.536;2023-08-30T07:03:29;94953.88;;;12.31;86.42
79612;BME280;69094;48.154;11.536;2023-08-30T07:05:55;94959.25;;;12.43;87.19
79612;BME280;69094;48.154;11.536;2023-08-30T07:08:20;94952.72;;;12.47;86.18
79612;BME280;69094;48.154;11.536;2023-08-30T07:10:46;94951.91;;;12.47;86.09
79612;BME280;69094;48.154;11.536;2023-08-30T07:13:12;94956.69;;;12.50;86.45
79612;BME280;69094;48.154;11.536;2023-08-30T07:15:41;94953.88;;;12.62;86.57
79612;BME280;69094;48.154;11.536;2023-08-30T07:18:08;94943.66;;;12.59;86.25
79612;BME280;69094;48.154;11.536;2023-08-30T07:20:34;94951.94;;;12.63;85.80
79612;BME280;69094;48.154;11.536;2023-08-30T07:23:02;94947.00;;;12.68;86.13
79612;BME280;69094;48.154;11.536;2023-08-30T07:25:27;94963.91;;;12.74;85.76
79612;BME280;69094;48.154;11.536;2023-08-30T07:27:53;94960.31;;;12.70;86.29
79612;BME280;69094;48.154;11.536;2023-08-30T07:30:18;94955.97;;;12.69;86.54
79612;BME280;69094;48.154;11.536;2023-08-30T07:32:44;94959.28;;;12.94;87.05
79612;BME280;69094;48.154;11.536;2023-08-30T07:35:09;94956.50;;;12.90;86.22
79612;BME280;69094;48.154;11.536;2023-08-30T07:37:35;94958.69;;;13.01;86.95
79612;BME280;69094;48.154;11.536;2023-08-30T07:40:01;94955.56;;;13.18;85.24
79612;BME280;69094;48.154;11.536;2023-08-30T07:42:26;94960.94;;;13.30;83.53
79612;BME280;69094;48.154;11.536;2023-08-30T07:44:52;94959.22;;;13.26;83.41
79612;BME280;69094;48.154;11.536;2023-08-30T07:47:17;94960.31;;;13.21;83.84
79612;BME280;69094;48.154;11.536;2023-08-30T07:49:43;94965.69;;;13.18;84.45
79612;BME280;69094;48.154;11.536;2023-08-30T07:52:08;94967.81;;;13.24;83.85
79612;BME280;69094;48.154;11.536;2023-08-30T07:54:36;94973.53;;;13.19;85.33
79612;BME280;69094;48.154;11.536;2023-08-30T07:57:02;94981.19;;;13.13;84.93
79612;BME280;69094;48.154;11.536;2023-08-30T07:59:29;94973.38;;;13.12;84.38
79612;BME280;69094;48.154;11.536;2023-08-30T08:01:54;94977.91;;;13.24;84.25
79612;BME280;69094;48.154;11.536;2023-08-30T08:04:20;94982.44;;;13.32;82.41
79612;BME280;69094;48.154;11.536;2023-08-30T08:06:46;94979.44;;;13.37;82.33
79612;BME280;69094;48.154;11.536;2023-08-30T08:09:12;94982.31;;;13.44;82.54
79612;BME280;69094;48.154;11.536;2023-08-30T08:11:37;94971.19;;;13.53;81.33
79612;BME280;69094;48.154;11.536;2023-08-30T08:14:03;94981.81;;;13.58;81.38
79612;BME280;69094;48.154;11.536;2023-08-30T08:16:28;94983.00;;;13.76;81.51
79612;BME280;69094;48.154;11.536;2023-08-30T08:18:54;94978.69;;;13.95;81.22
79612;BME280;69094;48.154;11.536;2023-08-30T08:21:19;94986.72;;;14.07;80.72
79612;BME280;69094;48.154;11.536;2023-08-30T08:23:46;94978.63;;;13.91;81.55
79612;BME280;69094;48.154;11.536;2023-08-30T08:26:14;94984.34;;;14.06;80.97
79612;BME280;69094;48.154;11.536;2023-08-30T08:28:39;94975.06;;;14.10;79.90
79612;BME280;69094;48.154;11.536;2023-08-30T08:31:06;94983.28;;;14.10;78.86
79612;BME280;69094;48.154;11.536;2023-08-30T08:33:31;94979.13;;;14.39;78.33
79612;BME280;69094;48.154;11.536;2023-08-30T08:35:57;94986.13;;;14.37;77.62
79612;BME280;69094;48.154;11.536;2023-08-30T08:38:22;94983.00;;;14.58;77.55
79612;BME280;69094;48.154;11.536;2023-08-30T08:40:48;94976.72;;;15.03;74.72
79612;BME280;69094;48.154;11.536;2023-08-30T08:43:17;94984.56;;;15.32;73.29
79612;BME280;69094;48.154;11.536;2023-08-30T08:45:45;94984.06;;;15.79;71.24
79612;BME280;69094;48.154;11.536;2023-08-30T08:48:10;94978.97;;;16.11;71.44
79612;BME280;69094;48.154;11.536;2023-08-30T08:50:38;94974.34;;;16.19;71.00
79612;BME280;69094;48.154;11.536;2023-08-30T08:53:03;94973.91;;;16.51;69.81
79612;BME280;69094;48.154;11.536;2023-08-30T08:55:29;94971.97;;;16.96;67.62
79612;BME280;69094;48.154;11.536;2023-08-30T08:57:57;94973.75;;;17.22;67.02
79612;BME280;69094;48.154;11.536;2023-08-30T09:00:23;94973.50;;;16.90;66.05
79612;BME280;69094;48.154;11.536;2023-08-30T09:02:49;94969.34;;;17.10;65.37
79612;BME280;69094;48.154;11.536;2023-08-30T09:05:18;94966.66;;;17.17;65.69
79612;BME280;69094;48.154;11.536;2023-08-30T09:07:44;94961.88;;;17.07;64.61
79612;BME280;69094;48.154;11.536;2023-08-30T09:10:10;94966.91;;;17.01;65.32
79612;BME280;69094;48.154;11.536;2023-08-30T09:12:37;94966.50;;;16.58;66.93
79612;BME280;69094;48.154;11.536;2023-08-30T09:15:02;94957.44;;;16.54;66.88
79612;BME280;69094;48.154;11.536;2023-08-30T09:17:36;94960.03;;;17.95;63.13
79612;BME280;69094;48.154;11.536;2023-08-30T09:20:08;94958.66;;;18.66;62.51
79612;BME280;69094;48.154;11.536;2023-08-30T09:22:41;94951.53;;;18.50;60.38
79612;BME280;69094;48.154;11.536;2023-08-30T09:25:08;94957.50;;;19.39;56.77
79612;BME280;69094;48.154;11.536;2023-08-30T09:27:35;94953.91;;;19.70;55.57
79612;BME280;69094;48.154;11.536;2023-08-30T09:30:04;94962.25;;;19.09;56.76
79612;BME280;69094;48.154;11.536;2023-08-30T09:32:30;94954.72;;;18.74;57.49
79612;BME280;69094;48.154;11.536;2023-08-30T09:34:56;94958.31;;;18.78;58.21
79612;BME280;69094;48.154;11.536;2023-08-30T09:37:22;94955.91;;;19.48;58.16
79612;BME280;69094;48.154;11.536;2023-08-30T09:39:51;94958.06;;;20.21;54.13
79612;BME280;69094;48.154;11.536;2023-08-30T09:42:17;94952.06;;;20.34;53.24
79612;BME280;69094;48.154;11.536;2023-08-30T09:44:45;94944.28;;;22.09;48.57
79612;BME280;69094;48.154;11.536;2023-08-30T09:47:12;94950.78;;;21.12;49.55
79612;BME280;69094;48.154;11.536;2023-08-30T09:49:44;94939.75;;;20.49;51.12
79612;BME280;69094;48.154;11.536;2023-08-30T09:52:10;94941.34;;;19.41;55.94
79612;BME280;69094;48.154;11.536;2023-08-30T09:54:37;94935.84;;;19.33;53.50
79612;BME280;69094;48.154;11.536;2023-08-30T09:57:07;94935.81;;;18.58;57.06
79612;BME280;69094;48.154;11.536;2023-08-30T09:59:32;94933.06;;;18.55;56.22
79612;BME280;69094;48.154;11.536;2023-08-30T10:01:58;94927.09;;;18.24;56.69
79612;BME280;69094;48.154;11.536;2023-08-30T10:04:26;94923.97;;;18.33;56.75
79612;BME280;69094;48.154;11.536;2023-08-30T10:06:51;94917.41;;;17.60;57.85
79612;BME280;69094;48.154;11.536;2023-08-30T10:09:19;94919.59;;;17.33;58.41
79612;BME280;69094;48.154;11.536;2023-08-30T10:11:45;94910.16;;;17.27;60.74
79612;BME280;69094;48.154;11.536;2023-08-30T10:14:12;94915.34;;;17.39;59.62
79612;BME280;69094;48.154;11.536;2023-08-30T10:16:43;94908.03;;;17.03;61.76
79612;BME280;69094;48.154;11.536;2023-08-30T10:19:16;94908.13;;;17.17;61.61
79612;BME280;69094;48.154;11.536;2023-08-30T10:21:44;94901.19;;;17.41;59.69
79612;BME280;69094;48.154;11.536;2023-08-30T10:24:14;94910.75;;;17.69;59.09
79612;BME280;69094;48.154;11.536;2023-08-30T10:26:43;94904.16;;;17.80;58.23
79612;BME280;69094;48.154;11.536;2023-08-30T10:29:10;94903.53;;;18.44;58.33
79612;BME280;69094;48.154;11.536;2023-08-30T10:31:38;94905.09;;;18.45;55.69
79612;BME280;69094;48.154;11.536;2023-08-30T10:34:13;94915.72;;;18.47;57.38
79612;BME280;69094;48.154;11.536;2023-08-30T10:36:39;94909.41;;;18.21;57.49
79612;BME280;69094;48.154;11.536;2023-08-30T10:39:11;94907.38;;;18.07;56.92
79612;BME280;69094;48.154;11.536;2023-08-30T10:41:37;94906.97;;;18.05;56.98
79612;BME280;69094;48.154;11.536;2023-08-30T10:44:02;94913.94;;;17.74;58.10
79612;BME280;69094;48.154;11.536;2023-08-30T10:46:32;94911.25;;;17.85;57.43
79612;BME280;69094;48.154;11.536;2023-08-30T10:49:14;94914.00;;;17.85;57.85
79612;BME280;69094;48.154;11.536;2023-08-30T10:51:40;94906.13;;;17.83;56.92
79612;BME280;69094;48.154;11.536;2023-08-30T10:54:16;94907.34;;;18.00;56.34
79612;BME280;69094;48.154;11.536;2023-08-30T10:56:54;94896.75;;;18.02;56.40
79612;BME280;69094;48.154;11.536;2023-08-30T10:59:20;94898.75;;;18.23;55.80
79612;BME280;69094;48.154;11.536;2023-08-30T11:01:47;94891.31;;;18.24;55.53
79612;BME280;69094;48.154;11.536;2023-08-30T11:04:16;94889.38;;;18.75;53.95
79612;BME280;69094;48.154;11.536;2023-08-30T11:06:46;94895.19;;;19.45;49.08
79612;BME280;69094;48.154;11.536;2023-08-30T11:09:20;94901.47;;;19.59;48.59
79612;BME280;69094;48.154;11.536;2023-08-30T11:11:46;94884.63;;;20.28;46.49
79612;BME280;69094;48.154;11.536;2023-08-30T11:14:13;94896.28;;;20.53;45.21
79612;BME280;69094;48.154;11.536;2023-08-30T11:16:39;94892.84;;;21.39;45.59
79612;BME280;69094;48.154;11.536;2023-08-30T11:19:05;94891.03;;;21.60;45.25
79612;BME280;69094;48.154;11.536;2023-08-30T11:21:32;94890.31;;;22.21;44.26
79612;BME280;69094;48.154;11.536;2023-08-30T11:23:58;94884.81;;;23.22;39.70
79612;BME280;69094;48.154;11.536;2023-08-30T11:26:24;94888.63;;;23.08;40.03
79612;BME280;69094;48.154;11.536;2023-08-30T11:28:49;94887.03;;;23.31;38.81
79612;BME280;69094;48.154;11.536;2023-08-30T11:31:24;94883.88;;;23.72;38.99
79612;BME280;69094;48.154;11.536;2023-08-30T11:33:53;94881.88;;;22.31;43.06
79612;BME280;69094;48.154;11.536;2023-08-30T11:36:25;94880.44;;;23.01;39.80
79612;BME280;69094;48.154;11.536;2023-08-30T11:38:53;94882.56;;;24.00;39.79
79612;BME280;69094;48.154;11.536;2023-08-30T11:41:23;94873.50;;;23.76;39.33
79612;BME280;69094;48.154;11.536;2023-08-30T11:43:52;94874.09;;;23.88;38.99
79612;BME280;69094;48.154;11.536;2023-08-30T11:46:18;94878.78;;;23.91;38.02
79612;BME280;69094;48.154;11.536;2023-08-30T11:48:49;94878.59;;;22.91;41.13
79612;BME280;69094;48.154;11.536;2023-08-30T11:51:16;94873.28;;;21.88;44.53
79612;BME280;69094;48.154;11.536;2023-08-30T11:53:43;94876.34;;;21.25;46.16
79612;BME280;69094;48.154;11.536;2023-08-30T11:56:12;94871.50;;;20.42;47.76
79612;BME280;69094;48.154;11.536;2023-08-30T11:58:38;94867.84;;;19.90;49.97
79612;BME280;69094;48.154;11.536;2023-08-30T12:01:03;94867.59;;;19.55;51.67
79612;BME280;69094;48.154;11.536;2023-08-30T12:03:30;94872.69;;;19.57;51.82
79612;BME280;69094;48.154;11.536;2023-08-30T12:05:56;94861.50;;;19.96;49.67
79612;BME280;69094;48.154;11.536;2023-08-30T12:08:26;94858.03;;;19.82;50.40
79612;BME280;69094;48.154;11.536;2023-08-30T12:10:53;94861.31;;;19.48;52.41
79612;BME280;69094;48.154;11.536;2023-08-30T12:13:29;94864.84;;;19.45;51.92
79612;BME280;69094;48.154;11.536;2023-08-30T12:15:56;94867.66;;;19.27;52.46
79612;BME280;69094;48.154;11.536;2023-08-30T12:18:26;94866.88;;;19.23;52.82
79612;BME280;69094;48.154;11.536;2023-08-30T12:21:02;94864.88;;;19.34;53.78
79612;BME280;69094;48.154;11.536;2023-08-30T12:23:32;94852.28;;;19.36;52.04
79612;BME280;69094;48.154;11.536;2023-08-30T12:26:05;94853.47;;;19.32;51.18
79612;BME280;69094;48.154;11.536;2023-08-30T12:28:37;94854.25;;;19.36;51.00
79612;BME280;69094;48.154;11.536;2023-08-30T12:31:04;94860.16;;;19.38;50.63
79612;BME280;69094;48.154;11.536;2023-08-30T12:33:30;94861.69;;;19.46;50.08
79612;BME280;69094;48.154;11.536;2023-08-30T12:35:57;94857.00;;;19.25;50.81
79612;BME280;69094;48.154;11.536;2023-08-30T12:38:23;94855.06;;;19.22;52.14
79612;BME280;69094;48.154;11.536;2023-08-30T12:40:56;94854.28;;;20.20;49.21
79612;BME280;69094;48.154;11.536;2023-08-30T12:43:22;94850.31;;;21.91;45.76
79612;BME280;69094;48.154;11.536;2023-08-30T12:45:49;94849.69;;;22.88;41.44
79612;BME280;69094;48.154;11.536;2023-08-30T12:48:16;94852.63;;;23.88;39.55
79612;BME280;69094;48.154;11.536;2023-08-30T12:50:43;94842.13;;;24.68;36.71